Time,TemperatureF,DewpointF,PressureIn,WindDirection,WindDirectionDegrees,WindSpeedMPH,WindSpeedGustMPH,Humidity,HourlyPrecipIn,Conditions,Clouds,dailyrainin,SoftwareType,DateUTC
2013-02-06 00:00:00,30.6,26.6,30.02,ENE,76,2.0,5.0,85,0.00,CLR,SKC,0.00,WeatherDisplay:10.37,2013-02-06 05:00:00,
2013-02-06 00:05:00,31.0,27.0,30.02,East,90,1.4,4.6,85,0.00,CLR,SKC,0.00,WeatherDisplay:10.37,2013-02-06 05:05:00,
2013-02-06 00:10:00,30.0,26.0,30.01,SW,225,0.0,0.0,85,0.00,CLR,SKC,0.00,WeatherDisplay:10.37,2013-02-06 05:10:00,
2013-02-06 00:15:00,31.0,27.0,30.01,NE,45,0.0,0.0,85,0.00,CLR,SKC,0.00,WeatherDisplay:10.37,2013-02-06 05:15:00,
2013-02-06 00:20:00,31.0,27.0,30.01,WNW,292,0.0,1.2,85,0.00,CLR,SKC,0.00,WeatherDisplay:10.37,2013-02-06 05:20:00,
2013-02-06 00:25:00,31.0,27.0,30.01,West,270,0.0,0.0,85,0.00,CLR,SKC,0.00,WeatherDisplay:10.37,2013-02-06 05:25:00,
2013-02-06 00:30:00,31.0,27.0,30.00,NNW,337,0.1,3.5,85,0.00,CLR,SKC,0.00,WeatherDisplay:10.37,2013-02-06 05:30:00,
2013-02-06 00:35:00,31.0,27.0,30.00,ENE,67,0.1,2.0,85,0.00,CLR,SKC,0.00,WeatherDisplay:10.37,2013-02-06 05:35:00,
2013-02-06 00:40:00,31.0,27.0,30.00,NE,45,0.4,1.2,85,0.00,CLR,SKC,0.00,WeatherDisplay:10.37,2013-02-06 05:40:00,
2013-02-06 00:45:00,31.0,27.0,30.00,ENE,67,0.0,1.2,85,0.00,CLR,SKC,0.00,WeatherDisplay:10.37,2013-02-06 05:45:00,
2013-02-06 00:50:00,31.0,27.0,30.00,ENE,67,0.0,1.2,85,0.00,CLR,SKC,0.00,WeatherDisplay:10.37,2013-02-06 05:50:00,
2013-02-06 00:55:00,31.0,27.0,30.00,NNE,22,0.1,0.0,85,0.00,CLR,SKC,0.00,WeatherDisplay:10.37,2013-02-06 05:55:00,
2013-02-06 01:00:00,31.0,26.7,30.00,NNE,22,0.0,0.0,84,0.00,CLR,SKC,0.00,WeatherDisplay:10.37,2013-02-06 06:00:00,
2013-02-06 01:05:00,31.0,26.7,30.00,NNE,22,0.0,0.0,84,0.00,CLR,SKC,0.00,WeatherDisplay:10.37,2013-02-06 06:05:00,
2013-02-06 01:10:00,31.0,26.7,30.00,NNE,22,0.0,0.0,84,0.00,CLR,SKC,0.00,WeatherDisplay:10.37,2013-02-06 06:10:00,
2013-02-06 01:15:00,31.0,26.7,30.00,NE,45,0.0,0.0,84,0.00,CLR,SKC,0.00,WeatherDisplay:10.37,2013-02-06 06:15:00,
2013-02-06 01:20:00,31.0,26.7,30.00,NE,45,0.0,0.0,84,0.00,CLR,SKC,0.00,WeatherDisplay:10.37,2013-02-06 06:20:00,
2013-02-06 01:25:00,31.0,26.7,30.00,East,90,0.0,1.2,84,0.00,CLR,SKC,0.00,WeatherDisplay:10.37,2013-02-06 06:25:00,
2013-02-06 01:30:00,31.0,26.7,30.00,ENE,67,0.0,0.0,84,0.00,CLR,SKC,0.00,WeatherDisplay:10.37,2013-02-06 06:30:00,
2013-02-06 01:35:00,31.0,26.7,30.00,ENE,67,0.0,0.0,84,0.00,CLR,SKC,0.00,WeatherDisplay:10.37,2013-02-06 06:35:00,
2013-02-06 01:40:00,31.0,26.7,30.00,ENE,67,0.0,1.2,84,0.00,CLR,SKC,0.00,WeatherDisplay:10.37,2013-02-06 06:40:00,
2013-02-06 01:45:00,31.0,26.7,30.00,ENE,67,0.0,0.0,84,0.00,CLR,SKC,0.00,WeatherDisplay:10.37,2013-02-06 06:45:00,
2013-02-06 01:50:00,31.0,26.4,30.01,ENE,67,0.0,0.0,83,0.00,CLR,SKC,0.00,WeatherDisplay:10.37,2013-02-06 06:50:00,
2013-02-06 01:55:00,31.0,26.4,30.01,ENE,67,0.0,0.0,83,0.00,CLR,SKC,0.00,WeatherDisplay:10.37,2013-02-06 06:55:00,
2013-02-06 02:00:00,31.0,26.4,30.00,ENE,67,0.0,0.0,83,0.00,CLR,SKC,0.00,WeatherDisplay:10.37,2013-02-06 07:00:00,
2013-02-06 02:05:00,31.0,26.4,30.00,ENE,67,0.0,0.0,83,0.00,CLR,SKC,0.00,WeatherDisplay:10.37,2013-02-06 07:05:00,
2013-02-06 02:10:00,31.0,26.4,30.00,ENE,67,0.0,0.0,83,0.00,CLR,SKC,0.00,WeatherDisplay:10.37,2013-02-06 07:10:00,
2013-02-06 02:15:00,31.0,26.4,30.00,ENE,67,0.0,0.0,83,0.00,CLR,SKC,0.00,WeatherDisplay:10.37,2013-02-06 07:15:00,
2013-02-06 02:20:00,31.0,26.4,29.99,ENE,67,0.0,0.0,83,0.00,CLR,SKC,0.00,WeatherDisplay:10.37,2013-02-06 07:20:00,
2013-02-06 02:25:00,31.0,26.4,29.99,NNW,337,0.0,0.0,83,0.00,CLR,SKC,0.00,WeatherDisplay:10.37,2013-02-06 07:25:00,
2013-02-06 02:30:00,31.0,26.4,30.01,NNW,337,0.0,0.0,83,0.00,CLR,SKC,0.00,WeatherDisplay:10.37,2013-02-06 07:30:00,
2013-02-06 02:35:00,31.0,26.4,30.01,NNW,337,0.0,0.0,83,0.00,CLR,SKC,0.00,WeatherDisplay:10.37,2013-02-06 07:35:00,
2013-02-06 02:40:00,31.0,26.4,30.00,NNW,337,0.0,0.0,83,0.00,CLR,SKC,0.00,WeatherDisplay:10.37,2013-02-06 07:40:00,
2013-02-06 02:45:00,31.0,26.4,30.00,NW,315,1.5,3.5,83,0.00,CLR,SKC,0.00,WeatherDisplay:10.37,2013-02-06 07:45:00,
2013-02-06 02:50:00,31.0,26.4,30.00,NNW,337,2.4,4.6,83,0.00,CLR,SKC,0.00,WeatherDisplay:10.37,2013-02-06 07:50:00,
2013-02-06 02:55:00,31.0,26.4,30.00,NE,45,0.3,0.0,83,0.00,CLR,SKC,0.00,WeatherDisplay:10.37,2013-02-06 07:55:00,
2013-02-06 03:00:00,31.0,26.4,29.99,NE,45,0.0,0.0,83,0.00,CLR,SKC,0.00,WeatherDisplay:10.37,2013-02-06 08:00:00,
2013-02-06 03:05:00,31.0,26.4,29.99,NE,45,0.0,0.0,83,0.00,CLR,SKC,0.00,WeatherDisplay:10.37,2013-02-06 08:05:00,
2013-02-06 03:10:00,31.0,26.4,29.98,NNW,337,0.0,0.0,83,0.00,CLR,SKC,0.00,WeatherDisplay:10.37,2013-02-06 08:10:00,
2013-02-06 03:15:00,31.0,26.4,29.98,NNW,337,0.0,0.0,83,0.00,CLR,SKC,0.00,WeatherDisplay:10.37,2013-02-06 08:15:00,
2013-02-06 03:20:00,31.0,26.4,29.98,NNW,337,0.0,0.0,83,0.00,CLR,SKC,0.00,WeatherDisplay:10.37,2013-02-06 08:20:00,
2013-02-06 03:25:00,30.0,25.5,29.98,NNW,337,0.0,0.0,83,0.00,CLR,SKC,0.00,WeatherDisplay:10.37,2013-02-06 08:25:00,
2013-02-06 03:30:00,31.0,26.4,29.99,WNW,292,0.0,0.0,83,0.00,CLR,SKC,0.00,WeatherDisplay:10.37,2013-02-06 08:30:00,
2013-02-06 03:35:00,31.0,26.4,29.99,West,270,0.0,0.0,83,0.00,CLR,SKC,0.00,WeatherDisplay:10.37,2013-02-06 08:35:00,
2013-02-06 03:40:00,31.0,26.4,30.00,West,270,0.0,0.0,83,0.00,CLR,SKC,0.00,WeatherDisplay:10.37,2013-02-06 08:40:00,
2013-02-06 03:45:00,31.0,26.4,30.00,West,270,0.0,0.0,83,0.00,CLR,SKC,0.00,WeatherDisplay:10.37,2013-02-06 08:45:00,
2013-02-06 03:50:00,30.0,25.5,30.00,West,270,0.0,0.0,83,0.00,CLR,SKC,0.00,WeatherDisplay:10.37,2013-02-06 08:50:00,
2013-02-06 03:55:00,30.0,25.5,30.00,SW,225,0.0,0.0,83,0.00,CLR,SKC,0.00,WeatherDisplay:10.37,2013-02-06 08:55:00,
2013-02-06 04:00:00,30.0,25.5,30.00,SW,225,0.0,0.0,83,0.00,CLR,SKC,0.00,WeatherDisplay:10.37,2013-02-06 09:00:00,
2013-02-06 04:05:00,30.0,25.5,30.00,SW,225,0.0,0.0,83,0.00,CLR,SKC,0.00,WeatherDisplay:10.37,2013-02-06 09:05:00,
2013-02-06 04:10:00,30.0,25.5,30.00,WSW,247,1.3,3.5,83,0.00,CLR,SKC,0.00,WeatherDisplay:10.37,2013-02-06 09:10:00,
2013-02-06 04:15:00,30.0,25.5,30.00,WSW,247,0.0,0.0,83,0.00,CLR,SKC,0.00,WeatherDisplay:10.37,2013-02-06 09:15:00,
2013-02-06 04:20:00,30.0,25.5,29.99,WSW,247,0.0,0.0,83,0.00,CLR,SKC,0.00,WeatherDisplay:10.37,2013-02-06 09:20:00,
2013-02-06 04:25:00,30.0,25.5,29.99,WSW,247,0.0,0.0,83,0.00,CLR,SKC,0.00,WeatherDisplay:10.37,2013-02-06 09:25:00,
2013-02-06 04:30:00,30.0,25.5,29.99,West,270,0.0,0.0,83,0.00,CLR,SKC,0.00,WeatherDisplay:10.37,2013-02-06 09:30:00,
2013-02-06 04:35:00,30.0,25.5,29.99,WNW,292,0.0,0.0,83,0.00,CLR,SKC,0.00,WeatherDisplay:10.37,2013-02-06 09:35:00,
2013-02-06 04:40:00,29.0,24.5,30.00,WNW,292,0.0,0.0,83,0.00,CLR,SKC,0.00,WeatherDisplay:10.37,2013-02-06 09:40:00,
2013-02-06 04:45:00,29.0,24.5,30.00,WNW,292,0.0,0.0,83,0.00,CLR,SKC,0.00,WeatherDisplay:10.37,2013-02-06 09:45:00,
2013-02-06 04:50:00,29.0,24.5,30.00,WNW,292,0.0,0.0,83,0.00,CLR,SKC,0.00,WeatherDisplay:10.37,2013-02-06 09:50:00,
2013-02-06 04:55:00,29.0,24.8,30.00,WNW,292,0.0,0.0,84,0.00,CLR,SKC,0.00,WeatherDisplay:10.37,2013-02-06 09:55:00,
2013-02-06 05:00:00,29.0,24.8,30.01,WNW,292,0.0,0.0,84,0.00,CLR,SKC,0.00,WeatherDisplay:10.37,2013-02-06 10:00:00,
2013-02-06 05:05:00,29.0,24.8,30.01,NW,315,0.0,0.0,84,0.00,CLR,SKC,0.00,WeatherDisplay:10.37,2013-02-06 10:05:00,
2013-02-06 05:10:00,29.0,24.8,30.01,NW,315,0.0,0.0,84,0.00,CLR,SKC,0.00,WeatherDisplay:10.37,2013-02-06 10:10:00,
2013-02-06 05:15:00,29.0,25.1,30.01,NW,315,0.0,0.0,85,0.00,CLR,SKC,0.00,WeatherDisplay:10.37,2013-02-06 10:15:00,
2013-02-06 05:20:00,29.0,24.8,30.01,WNW,292,0.0,0.0,84,0.00,CLR,SKC,0.00,WeatherDisplay:10.37,2013-02-06 10:20:00,
2013-02-06 05:25:00,29.0,24.8,30.01,NW,315,0.0,0.0,84,0.00,CLR,SKC,0.00,WeatherDisplay:10.37,2013-02-06 10:25:00,
2013-02-06 05:30:00,29.0,24.8,30.03,NW,315,0.0,0.0,84,0.00,CLR,SKC,0.00,WeatherDisplay:10.37,2013-02-06 10:30:00,
2013-02-06 05:35:00,30.0,25.8,30.03,NW,315,0.0,0.0,84,0.00,CLR,SKC,0.00,WeatherDisplay:10.37,2013-02-06 10:35:00,
2013-02-06 05:40:00,30.0,25.8,30.03,NW,315,0.0,0.0,84,0.00,CLR,SKC,0.00,WeatherDisplay:10.37,2013-02-06 10:40:00,
2013-02-06 05:45:00,30.0,25.8,30.03,WNW,292,0.0,0.0,84,0.00,CLR,SKC,0.00,WeatherDisplay:10.37,2013-02-06 10:45:00,
2013-02-06 05:50:00,30.0,25.5,30.04,West,270,0.0,0.0,83,0.00,CLR,SKC,0.00,WeatherDisplay:10.37,2013-02-06 10:50:00,
2013-02-06 05:55:00,30.0,25.5,30.04,West,270,0.0,0.0,83,0.00,CLR,SKC,0.00,WeatherDisplay:10.37,2013-02-06 10:55:00,
2013-02-06 06:00:00,30.0,25.5,30.04,West,270,0.0,1.2,83,0.00,CLR,SKC,0.00,WeatherDisplay:10.37,2013-02-06 11:00:00,
2013-02-06 06:05:00,31.0,26.4,30.04,WNW,292,0.0,0.0,83,0.00,CLR,SKC,0.00,WeatherDisplay:10.37,2013-02-06 11:05:00,
2013-02-06 06:10:00,30.0,25.5,30.04,WNW,292,0.0,0.0,83,0.00,CLR,SKC,0.00,WeatherDisplay:10.37,2013-02-06 11:10:00,
2013-02-06 06:15:00,30.0,25.5,30.04,West,270,0.0,0.0,83,0.00,CLR,SKC,0.00,WeatherDisplay:10.37,2013-02-06 11:15:00,
2013-02-06 06:20:00,31.0,26.4,30.05,WNW,292,0.0,1.2,83,0.00,CLR,SKC,0.00,WeatherDisplay:10.37,2013-02-06 11:20:00,
2013-02-06 06:25:00,30.0,25.5,30.05,NNW,337,0.0,0.0,83,0.00,CLR,SKC,0.00,WeatherDisplay:10.37,2013-02-06 11:25:00,
2013-02-06 06:30:00,30.0,25.5,30.04,NNW,337,0.0,0.0,83,0.00,CLR,SKC,0.00,WeatherDisplay:10.37,2013-02-06 11:30:00,
2013-02-06 06:35:00,30.0,25.5,30.04,WNW,292,0.0,0.0,83,0.00,CLR,SKC,0.00,WeatherDisplay:10.37,2013-02-06 11:35:00,
2013-02-06 06:40:00,30.0,25.5,30.05,NW,315,0.0,0.0,83,0.00,CLR,SKC,0.00,WeatherDisplay:10.37,2013-02-06 11:40:00,
2013-02-06 06:45:00,29.0,24.5,30.05,West,270,0.0,0.0,83,0.00,CLR,SKC,0.00,WeatherDisplay:10.37,2013-02-06 11:45:00,
2013-02-06 06:50:00,29.0,24.5,30.06,WSW,247,0.0,0.0,83,0.00,CLR,SKC,0.00,WeatherDisplay:10.37,2013-02-06 11:50:00,
2013-02-06 06:55:00,30.0,25.5,30.06,WSW,247,0.0,0.0,83,0.00,CLR,SKC,0.00,WeatherDisplay:10.37,2013-02-06 11:55:00,
2013-02-06 07:00:00,30.0,25.5,30.06,WSW,247,0.0,0.0,83,0.00,CLR,SKC,0.00,WeatherDisplay:10.37,2013-02-06 12:00:00,
2013-02-06 07:05:00,29.0,24.5,30.06,NW,315,0.0,0.0,83,0.00,CLR,SKC,0.00,WeatherDisplay:10.37,2013-02-06 12:05:00,
2013-02-06 07:10:00,30.0,25.5,30.06,West,270,0.0,0.0,83,0.00,CLR,SKC,0.00,WeatherDisplay:10.37,2013-02-06 12:10:00,
2013-02-06 07:15:00,30.0,25.8,30.06,WNW,292,0.0,0.0,84,0.00,CLR,SKC,0.00,WeatherDisplay:10.37,2013-02-06 12:15:00,
2013-02-06 07:20:00,30.0,25.5,30.06,WNW,292,0.0,0.0,83,0.00,CLR,SKC,0.00,WeatherDisplay:10.37,2013-02-06 12:20:00,
2013-02-06 07:25:00,30.0,25.5,30.06,WNW,292,0.0,0.0,83,0.00,CLR,SKC,0.00,WeatherDisplay:10.37,2013-02-06 12:25:00,
2013-02-06 07:30:00,31.0,26.4,30.06,WNW,292,0.0,0.0,83,0.00,CLR,SKC,0.00,WeatherDisplay:10.37,2013-02-06 12:30:00,
2013-02-06 07:35:00,31.0,26.4,30.06,NW,315,0.0,0.0,83,0.00,CLR,SKC,0.00,WeatherDisplay:10.37,2013-02-06 12:35:00,
2013-02-06 07:40:00,31.0,26.4,30.06,WSW,247,0.1,1.2,83,0.00,CLR,SKC,0.00,WeatherDisplay:10.37,2013-02-06 12:40:00,
2013-02-06 07:45:00,31.0,26.4,30.06,West,270,0.0,0.0,83,0.00,CLR,SKC,0.00,WeatherDisplay:10.37,2013-02-06 12:45:00,
2013-02-06 07:50:00,31.0,26.4,30.06,WNW,292,0.0,0.0,83,0.00,CLR,SKC,0.00,WeatherDisplay:10.37,2013-02-06 12:50:00,
2013-02-06 07:55:00,31.0,26.4,30.06,NW,315,0.0,0.0,83,0.00,CLR,SKC,0.00,WeatherDisplay:10.37,2013-02-06 12:55:00,
2013-02-06 08:00:00,31.0,26.1,30.08,WSW,247,0.5,1.2,82,0.00,CLR,SKC,0.00,WeatherDisplay:10.37,2013-02-06 13:00:00,
2013-02-06 08:05:00,32.0,27.4,30.08,WNW,292,1.3,3.5,83,0.00,CLR,SKC,0.00,WeatherDisplay:10.37,2013-02-06 13:05:00,
2013-02-06 08:10:00,32.0,27.1,30.08,West,270,0.5,2.3,82,0.00,CLR,SKC,0.00,WeatherDisplay:10.37,2013-02-06 13:10:00,
2013-02-06 08:15:00,32.0,27.1,30.08,NW,315,0.0,1.2,82,0.00,CLR,SKC,0.00,WeatherDisplay:10.37,2013-02-06 13:15:00,
2013-02-06 08:20:00,32.0,27.1,30.08,West,270,0.0,0.0,82,0.00,CLR,SKC,0.00,WeatherDisplay:10.37,2013-02-06 13:20:00,
2013-02-06 08:25:00,32.0,27.1,30.08,WSW,247,0.0,0.0,82,0.00,CLR,SKC,0.00,WeatherDisplay:10.37,2013-02-06 13:25:00,
2013-02-06 08:30:00,32.0,27.1,30.08,WNW,292,0.0,3.5,82,0.00,CLR,SKC,0.00,WeatherDisplay:10.37,2013-02-06 13:30:00,
2013-02-06 08:35:00,33.0,27.8,30.08,West,270,0.0,0.0,81,0.00,CLR,SKC,0.00,WeatherDisplay:10.37,2013-02-06 13:35:00,
2013-02-06 08:40:00,33.0,27.8,30.08,WNW,292,0.1,2.3,81,0.00,CLR,SKC,0.00,WeatherDisplay:10.37,2013-02-06 13:40:00,
2013-02-06 08:45:00,32.0,27.1,30.08,West,270,1.7,3.5,82,0.00,CLR,SKC,0.00,WeatherDisplay:10.37,2013-02-06 13:45:00,
2013-02-06 08:50:00,33.0,27.5,30.08,WNW,292,0.2,1.2,80,0.00,CLR,SKC,0.00,WeatherDisplay:10.37,2013-02-06 13:50:00,
2013-02-06 08:55:00,33.0,27.8,30.08,West,270,0.2,2.0,81,0.00,CLR,SKC,0.00,WeatherDisplay:10.37,2013-02-06 13:55:00,
2013-02-06 09:00:00,33.0,27.5,30.08,SW,225,1.7,4.6,80,0.00,CLR,SKC,0.00,WeatherDisplay:10.37,2013-02-06 14:00:00,
2013-02-06 09:05:00,34.0,28.5,30.08,WNW,292,0.8,1.2,80,0.00,CLR,SKC,0.00,WeatherDisplay:10.37,2013-02-06 14:05:00,
2013-02-06 09:10:00,34.0,28.2,30.08,West,270,1.9,3.5,79,0.00,CLR,SKC,0.00,WeatherDisplay:10.37,2013-02-06 14:10:00,
2013-02-06 09:15:00,34.0,28.2,30.08,SW,225,0.3,2.3,79,0.00,CLR,SKC,0.00,WeatherDisplay:10.37,2013-02-06 14:15:00,
2013-02-06 09:20:00,34.0,28.2,30.08,NW,315,0.9,4.6,79,0.00,CLR,SKC,0.00,WeatherDisplay:10.37,2013-02-06 14:20:00,
2013-02-06 09:25:00,34.0,27.9,30.08,WSW,247,0.9,5.8,78,0.00,CLR,SKC,0.00,WeatherDisplay:10.37,2013-02-06 14:25:00,
2013-02-06 09:30:00,34.0,27.5,30.08,WSW,247,0.9,2.3,77,0.00,CLR,SKC,0.00,WeatherDisplay:10.37,2013-02-06 14:30:00,
2013-02-06 09:35:00,34.0,27.5,30.08,WNW,292,3.8,6.9,77,0.00,CLR,SKC,0.00,WeatherDisplay:10.37,2013-02-06 14:35:00,
2013-02-06 09:40:00,34.0,27.2,30.08,West,270,2.7,5.8,76,0.00,CLR,SKC,0.00,WeatherDisplay:10.37,2013-02-06 14:40:00,
2013-02-06 09:46:00,34.0,27.2,30.08,WNW,292,2.9,11.5,76,0.00,CLR,SKC,0.00,WeatherDisplay:10.37,2013-02-06 14:46:00,
2013-02-06 09:51:00,34.0,26.9,30.08,NW,315,2.6,6.9,75,0.00,CLR,SKC,0.00,WeatherDisplay:10.37,2013-02-06 14:51:00,
2013-02-06 09:56:00,34.0,26.6,30.08,WNW,292,3.8,5.8,74,0.00,CLR,SKC,0.00,WeatherDisplay:10.37,2013-02-06 14:56:00,
2013-02-06 10:01:00,34.0,26.6,30.08,WSW,247,2.9,6.9,74,0.00,CLR,SKC,0.00,WeatherDisplay:10.37,2013-02-06 15:01:00,
2013-02-06 10:06:00,34.0,26.6,30.08,West,270,0.3,2.3,74,0.00,CLR,SKC,0.00,WeatherDisplay:10.37,2013-02-06 15:06:00,
2013-02-06 10:11:00,34.0,26.6,30.10,WSW,247,3.4,10.4,74,0.00,CLR,SKC,0.00,WeatherDisplay:10.37,2013-02-06 15:11:00,
2013-02-06 10:16:00,33.0,26.3,30.10,SW,225,3.8,4.6,76,0.00,CLR,SKC,0.00,WeatherDisplay:10.37,2013-02-06 15:16:00,
2013-02-06 10:21:00,34.0,28.2,30.10,WNW,292,2.2,9.0,79,0.00,CLR,SKC,0.00,WeatherDisplay:10.37,2013-02-06 15:21:00,
2013-02-06 10:26:00,34.0,29.1,30.10,WNW,292,2.2,8.1,82,0.00,CLR,SKC,0.00,WeatherDisplay:10.37,2013-02-06 15:26:00,
2013-02-06 10:31:00,34.0,29.7,30.10,WSW,247,1.7,6.9,84,0.00,CLR,SKC,0.00,WeatherDisplay:10.37,2013-02-06 15:31:00,
2013-02-06 10:36:00,34.0,30.3,30.10,WNW,292,1.6,5.0,86,0.00,CLR,SKC,0.00,WeatherDisplay:10.37,2013-02-06 15:36:00,
2013-02-06 10:41:00,35.0,31.2,30.10,West,270,1.4,4.6,86,0.00,CLR,SKC,0.00,WeatherDisplay:10.37,2013-02-06 15:41:00,
2013-02-06 10:46:00,35.0,31.5,30.10,NW,315,1.8,5.8,87,0.00,CLR,SKC,0.00,WeatherDisplay:10.37,2013-02-06 15:46:00,
2013-02-06 10:51:00,35.0,31.5,30.10,WSW,247,1.1,4.6,87,0.00,CLR,SKC,0.00,WeatherDisplay:10.37,2013-02-06 15:51:00,
2013-02-06 10:56:00,34.0,30.5,30.10,NNW,337,2.8,4.6,87,0.00,CLR,SKC,0.00,WeatherDisplay:10.37,2013-02-06 15:56:00,
2013-02-06 11:01:00,34.0,30.8,30.09,West,270,0.3,2.3,88,0.00,CLR,SKC,0.00,WeatherDisplay:10.37,2013-02-06 16:01:00,
2013-02-06 11:06:00,33.0,30.1,30.09,WSW,247,2.0,6.9,89,0.00,CLR,SKC,0.00,WeatherDisplay:10.37,2013-02-06 16:06:00,
2013-02-06 11:11:00,33.0,30.1,30.08,WSW,247,0.7,2.3,89,0.00,CLR,SKC,0.00,WeatherDisplay:10.37,2013-02-06 16:11:00,
2013-02-06 11:16:00,34.0,31.1,30.08,WSW,247,3.8,6.0,89,0.00,CLR,SKC,0.00,WeatherDisplay:10.37,2013-02-06 16:16:00,
2013-02-06 11:21:00,34.0,31.1,30.08,WSW,247,1.7,7.0,89,0.00,CLR,SKC,0.00,WeatherDisplay:10.37,2013-02-06 16:21:00,
2013-02-06 11:26:00,35.0,31.8,30.08,SW,225,1.6,4.0,88,0.00,CLR,SKC,0.00,WeatherDisplay:10.37,2013-02-06 16:26:00,
2013-02-06 11:31:00,34.0,30.8,30.08,West,270,0.8,3.5,88,0.00,CLR,SKC,0.00,WeatherDisplay:10.37,2013-02-06 16:31:00,
2013-02-06 11:36:00,36.0,32.8,30.08,WSW,247,0.6,8.1,88,0.00,CLR,SKC,0.00,WeatherDisplay:10.37,2013-02-06 16:36:00,
2013-02-06 11:41:00,34.0,31.1,30.07,WNW,292,5.1,6.9,89,0.00,CLR,SKC,0.00,WeatherDisplay:10.37,2013-02-06 16:41:00,
2013-02-06 11:46:00,34.0,31.1,30.07,WNW,292,2.7,8.1,89,0.00,CLR,SKC,0.00,WeatherDisplay:10.37,2013-02-06 16:46:00,
2013-02-06 11:51:00,34.0,31.1,30.08,West,270,2.8,5.8,89,0.00,CLR,SKC,0.00,WeatherDisplay:10.37,2013-02-06 16:51:00,
2013-02-06 11:56:00,35.0,32.1,30.08,West,270,2.1,4.6,89,0.00,CLR,SKC,0.00,WeatherDisplay:10.37,2013-02-06 16:56:00,
2013-02-06 12:01:00,35.0,32.4,30.08,WNW,292,1.4,3.5,90,0.00,CLR,SKC,0.00,WeatherDisplay:10.37,2013-02-06 17:01:00,
2013-02-06 12:06:00,35.0,32.4,30.08,WNW,292,0.7,3.5,90,0.01,RA,SKC,0.01,WeatherDisplay:10.37,2013-02-06 17:06:00,
2013-02-06 12:11:00,35.0,32.4,30.08,West,270,1.2,5.0,90,0.01,RA,SKC,0.01,WeatherDisplay:10.37,2013-02-06 17:11:00,
2013-02-06 12:16:00,34.0,31.4,30.08,WNW,292,1.2,3.5,90,0.01,,SKC,0.01,WeatherDisplay:10.37,2013-02-06 17:16:00,
2013-02-06 12:21:00,36.0,33.1,30.08,WSW,247,1.3,4.6,89,0.01,CLR,SKC,0.01,WeatherDisplay:10.37,2013-02-06 17:21:00,
2013-02-06 12:26:00,37.0,34.1,30.08,WSW,247,3.4,6.9,89,0.01,CLR,SKC,0.01,WeatherDisplay:10.37,2013-02-06 17:26:00,
2013-02-06 12:31:00,37.0,34.1,30.08,WNW,292,0.4,3.5,89,0.01,CLR,SKC,0.01,WeatherDisplay:10.37,2013-02-06 17:31:00,
2013-02-06 12:36:00,35.0,32.1,30.08,NW,315,3.9,10.4,89,0.01,CLR,SKC,0.01,WeatherDisplay:10.37,2013-02-06 17:36:00,
2013-02-06 12:41:00,36.0,33.1,30.08,SW,225,1.6,5.8,89,0.01,CLR,SKC,0.01,WeatherDisplay:10.37,2013-02-06 17:41:00,
2013-02-06 12:46:00,37.0,34.1,30.08,WSW,247,4.5,6.9,89,0.01,CLR,SKC,0.01,WeatherDisplay:10.37,2013-02-06 17:46:00,
2013-02-06 12:51:00,37.0,34.1,30.08,West,270,0.3,4.0,89,0.01,CLR,SKC,0.01,WeatherDisplay:10.37,2013-02-06 17:51:00,
2013-02-06 12:56:00,37.0,34.1,30.08,WSW,247,5.0,9.2,89,0.01,CLR,SKC,0.01,WeatherDisplay:10.37,2013-02-06 17:56:00,
2013-02-06 13:01:00,38.0,34.8,30.07,WSW,247,2.7,8.1,88,0.01,CLR,SKC,0.01,WeatherDisplay:10.37,2013-02-06 18:01:00,
2013-02-06 13:06:00,38.0,34.5,30.07,WSW,247,3.7,11.5,87,0.00,CLR,SKC,0.01,WeatherDisplay:10.37,2013-02-06 18:06:00,
2013-02-06 13:11:00,37.0,33.5,30.07,WSW,247,1.7,6.0,87,0.00,CLR,SKC,0.01,WeatherDisplay:10.37,2013-02-06 18:11:00,
2013-02-06 13:16:00,38.0,34.2,30.07,SW,225,4.9,10.4,86,0.00,CLR,SKC,0.01,WeatherDisplay:10.37,2013-02-06 18:16:00,
2013-02-06 13:21:00,38.0,34.2,30.06,SW,225,3.9,6.9,86,0.00,CLR,SKC,0.01,WeatherDisplay:10.37,2013-02-06 18:21:00,
2013-02-06 13:26:00,38.0,34.2,30.06,SW,225,6.1,9.2,86,0.00,CLR,SKC,0.01,WeatherDisplay:10.37,2013-02-06 18:26:00,
2013-02-06 13:31:00,39.0,34.9,30.06,SW,225,1.6,4.6,85,0.00,CLR,SKC,0.01,WeatherDisplay:10.37,2013-02-06 18:31:00,
2013-02-06 13:36:00,38.0,33.3,30.06,SW,225,1.5,4.6,83,0.00,CLR,SKC,0.01,WeatherDisplay:10.37,2013-02-06 18:36:00,
2013-02-06 13:41:00,37.0,32.6,30.06,SW,225,1.8,4.6,84,0.00,CLR,SKC,0.01,WeatherDisplay:10.37,2013-02-06 18:41:00,
2013-02-06 13:46:00,39.0,34.9,30.06,West,270,1.6,4.6,85,0.00,CLR,SKC,0.01,WeatherDisplay:10.37,2013-02-06 18:46:00,
2013-02-06 13:51:00,39.0,34.9,30.07,WSW,247,0.9,3.5,85,0.00,CLR,SKC,0.01,WeatherDisplay:10.37,2013-02-06 18:51:00,
2013-02-06 13:56:00,38.0,33.3,30.07,West,270,1.9,6.9,83,0.00,CLR,SKC,0.01,WeatherDisplay:10.37,2013-02-06 18:56:00,
2013-02-06 14:01:00,38.0,33.3,30.07,WNW,292,3.5,8.1,83,0.00,CLR,SKC,0.01,WeatherDisplay:10.37,2013-02-06 19:01:00,
2013-02-06 14:06:00,37.0,32.6,30.07,SW,225,0.7,3.5,84,0.00,CLR,SKC,0.01,WeatherDisplay:10.37,2013-02-06 19:06:00,
2013-02-06 14:11:00,38.0,33.3,30.08,WSW,247,3.2,5.8,83,0.00,CLR,SKC,0.01,WeatherDisplay:10.37,2013-02-06 19:11:00,
2013-02-06 14:16:00,38.0,33.3,30.08,WSW,247,2.8,5.8,83,0.00,CLR,SKC,0.01,WeatherDisplay:10.37,2013-02-06 19:16:00,
2013-02-06 14:21:00,37.0,32.6,30.08,West,270,2.8,5.8,84,0.00,CLR,SKC,0.01,WeatherDisplay:10.37,2013-02-06 19:21:00,
2013-02-06 14:26:00,37.0,32.3,30.08,WSW,247,2.2,4.6,83,0.00,CLR,SKC,0.01,WeatherDisplay:10.37,2013-02-06 19:26:00,
2013-02-06 14:31:00,37.0,32.3,30.08,WNW,292,3.9,6.9,83,0.00,CLR,SKC,0.01,WeatherDisplay:10.37,2013-02-06 19:31:00,
2013-02-06 14:36:00,36.0,31.6,30.08,West,270,4.3,8.1,84,0.00,CLR,SKC,0.01,WeatherDisplay:10.37,2013-02-06 19:36:00,
2013-02-06 14:41:00,36.0,32.2,30.09,WSW,247,1.6,3.5,86,0.00,CLR,SKC,0.01,WeatherDisplay:10.37,2013-02-06 19:41:00,
2013-02-06 14:46:00,36.0,32.5,30.09,NNW,337,0.2,1.0,87,0.00,CLR,SKC,0.01,WeatherDisplay:10.37,2013-02-06 19:46:00,
2013-02-06 14:51:00,36.0,32.5,30.09,WSW,247,2.0,4.6,87,0.00,CLR,SKC,0.01,WeatherDisplay:10.37,2013-02-06 19:51:00,
2013-02-06 14:56:00,36.0,32.5,30.09,NNW,337,0.0,0.0,87,0.00,CLR,SKC,0.01,WeatherDisplay:10.37,2013-02-06 19:56:00,
2013-02-06 15:01:00,35.0,31.8,30.10,WNW,292,0.2,1.2,88,0.00,CLR,SKC,0.01,WeatherDisplay:10.37,2013-02-06 20:01:00,
2013-02-06 15:06:00,35.0,31.8,30.10,NW,315,0.0,1.2,88,0.00,CLR,SKC,0.01,WeatherDisplay:10.37,2013-02-06 20:06:00,
2013-02-06 15:11:00,35.0,31.8,30.10,WSW,247,1.2,2.3,88,0.00,CLR,SKC,0.01,WeatherDisplay:10.37,2013-02-06 20:11:00,
2013-02-06 15:16:00,35.0,32.1,30.10,WSW,247,0.0,1.2,89,0.00,CLR,SKC,0.01,WeatherDisplay:10.37,2013-02-06 20:16:00,
2013-02-06 15:21:00,35.0,32.1,30.10,WSW,247,0.4,2.3,89,0.00,CLR,SKC,0.01,WeatherDisplay:10.37,2013-02-06 20:21:00,
2013-02-06 15:26:00,35.0,32.1,30.10,SW,225,0.9,3.5,89,0.00,CLR,SKC,0.01,WeatherDisplay:10.37,2013-02-06 20:26:00,
2013-02-06 15:31:00,35.0,31.8,30.12,West,270,0.4,2.3,88,0.00,CLR,SKC,0.01,WeatherDisplay:10.37,2013-02-06 20:31:00,
2013-02-06 15:36:00,35.0,31.8,30.12,WSW,247,0.0,0.0,88,0.00,CLR,SKC,0.01,WeatherDisplay:10.37,2013-02-06 20:36:00,
2013-02-06 15:41:00,35.0,31.5,30.13,NW,315,0.9,3.5,87,0.00,CLR,SKC,0.01,WeatherDisplay:10.37,2013-02-06 20:41:00,
2013-02-06 15:46:00,35.0,31.2,30.13,WNW,292,0.6,3.5,86,0.00,CLR,SKC,0.01,WeatherDisplay:10.37,2013-02-06 20:46:00,
2013-02-06 15:51:00,35.0,31.2,30.13,WNW,292,3.4,8.1,86,0.00,CLR,SKC,0.01,WeatherDisplay:10.37,2013-02-06 20:51:00,
2013-02-06 15:56:00,35.0,31.2,30.13,SW,225,0.4,1.2,86,0.00,CLR,SKC,0.01,WeatherDisplay:10.37,2013-02-06 20:56:00,
2013-02-06 16:01:00,35.0,31.2,30.13,WNW,292,2.9,5.8,86,0.00,CLR,SKC,0.01,WeatherDisplay:10.37,2013-02-06 21:01:00,
2013-02-06 16:06:00,35.0,31.2,30.13,WSW,247,0.9,4.0,86,0.00,CLR,SKC,0.01,WeatherDisplay:10.37,2013-02-06 21:06:00,
2013-02-06 16:11:00,35.0,31.2,30.13,NNW,337,3.0,8.1,86,0.00,CLR,SKC,0.01,WeatherDisplay:10.37,2013-02-06 21:11:00,
2013-02-06 16:16:00,35.0,30.9,30.13,NW,315,5.5,10.4,85,0.00,CLR,SKC,0.01,WeatherDisplay:10.37,2013-02-06 21:16:00,
2013-02-06 16:21:00,35.0,30.7,30.14,WSW,247,2.6,9.2,84,0.00,CLR,SKC,0.01,WeatherDisplay:10.37,2013-02-06 21:21:00,
2013-02-06 16:26:00,34.0,29.4,30.14,SW,225,2.7,5.0,83,0.00,CLR,SKC,0.01,WeatherDisplay:10.37,2013-02-06 21:26:00,
2013-02-06 16:31:00,34.0,29.4,30.14,West,270,1.3,5.8,83,0.00,CLR,SKC,0.01,WeatherDisplay:10.37,2013-02-06 21:31:00,
2013-02-06 16:36:00,34.0,29.7,30.14,WSW,247,2.6,5.8,84,0.00,CLR,SKC,0.01,WeatherDisplay:10.37,2013-02-06 21:36:00,
2013-02-06 16:41:00,33.0,28.7,30.15,WNW,292,2.9,4.6,84,0.00,CLR,SKC,0.01,WeatherDisplay:10.37,2013-02-06 21:41:00,
2013-02-06 16:46:00,33.0,28.7,30.15,WNW,292,1.9,5.8,84,0.00,CLR,SKC,0.01,WeatherDisplay:10.37,2013-02-06 21:46:00,
2013-02-06 16:51:00,33.0,28.7,30.15,WSW,247,3.0,6.9,84,0.00,CLR,SKC,0.01,WeatherDisplay:10.37,2013-02-06 21:51:00,
2013-02-06 16:56:00,33.0,28.7,30.15,WNW,292,3.2,6.9,84,0.00,CLR,SKC,0.01,WeatherDisplay:10.37,2013-02-06 21:56:00,
2013-02-06 17:01:00,32.0,28.3,30.16,WSW,247,1.0,3.5,86,0.00,CLR,SKC,0.01,WeatherDisplay:10.37,2013-02-06 22:01:00,
2013-02-06 17:06:00,32.0,28.3,30.16,WNW,292,3.9,7.0,86,0.00,CLR,SKC,0.01,WeatherDisplay:10.37,2013-02-06 22:06:00,
2013-02-06 17:11:00,33.0,28.4,30.17,West,270,4.3,9.2,83,0.00,CLR,SKC,0.01,WeatherDisplay:10.37,2013-02-06 22:11:00,
2013-02-06 17:16:00,32.0,27.4,30.17,NW,315,3.2,5.8,83,0.00,CLR,SKC,0.01,WeatherDisplay:10.37,2013-02-06 22:16:00,
2013-02-06 17:21:00,32.0,27.4,30.18,WNW,292,2.6,4.6,83,0.00,CLR,SKC,0.01,WeatherDisplay:10.37,2013-02-06 22:21:00,
2013-02-06 17:26:00,32.0,27.4,30.18,NW,315,4.0,8.1,83,0.00,CLR,SKC,0.01,WeatherDisplay:10.37,2013-02-06 22:26:00,
2013-02-06 17:31:00,32.0,27.4,30.18,West,270,4.9,8.1,83,0.00,CLR,SKC,0.01,WeatherDisplay:10.37,2013-02-06 22:31:00,
2013-02-06 17:36:00,32.0,27.4,30.18,WNW,292,3.5,9.2,83,0.00,CLR,SKC,0.01,WeatherDisplay:10.37,2013-02-06 22:36:00,
2013-02-06 17:41:00,32.0,27.4,30.18,West,270,5.7,10.4,83,0.00,CLR,SKC,0.01,WeatherDisplay:10.37,2013-02-06 22:41:00,
2013-02-06 17:46:00,32.0,27.7,30.18,WNW,292,4.3,6.0,84,0.00,CLR,SKC,0.01,WeatherDisplay:10.37,2013-02-06 22:46:00,
2013-02-06 17:51:00,32.0,27.7,30.19,West,270,3.1,7.0,84,0.00,CLR,SKC,0.01,WeatherDisplay:10.37,2013-02-06 22:51:00,
2013-02-06 17:56:00,32.0,27.4,30.19,WNW,292,3.9,6.9,83,0.00,CLR,SKC,0.01,WeatherDisplay:10.37,2013-02-06 22:56:00,
2013-02-06 18:01:00,32.0,27.7,30.20,West,270,3.2,6.9,84,0.00,CLR,SKC,0.01,WeatherDisplay:10.37,2013-02-06 23:01:00,
2013-02-06 18:06:00,32.0,28.0,30.20,NW,315,3.3,5.8,85,0.00,CLR,SKC,0.01,WeatherDisplay:10.37,2013-02-06 23:06:00,
2013-02-06 18:11:00,32.0,28.0,30.20,West,270,0.2,2.3,85,0.00,CLR,SKC,0.01,WeatherDisplay:10.37,2013-02-06 23:11:00,
2013-02-06 18:16:00,32.0,28.6,30.20,WNW,292,1.2,3.5,87,0.00,CLR,SKC,0.01,WeatherDisplay:10.37,2013-02-06 23:16:00,
2013-02-06 18:21:00,32.0,28.6,30.20,West,270,5.1,8.1,87,0.00,CLR,SKC,0.01,WeatherDisplay:10.37,2013-02-06 23:21:00,
2013-02-06 18:26:00,32.0,28.8,30.20,West,270,3.5,8.1,88,0.00,CLR,SKC,0.01,WeatherDisplay:10.37,2013-02-06 23:26:00,
2013-02-06 18:31:00,32.0,28.6,30.21,WNW,292,2.1,5.8,87,0.00,CLR,SKC,0.01,WeatherDisplay:10.37,2013-02-06 23:31:00,
2013-02-06 18:36:00,32.0,28.8,30.21,WSW,247,0.9,4.6,88,0.00,CLR,SKC,0.01,WeatherDisplay:10.37,2013-02-06 23:36:00,
2013-02-06 18:41:00,32.0,28.6,30.22,West,270,3.5,5.8,87,0.00,CLR,SKC,0.01,WeatherDisplay:10.37,2013-02-06 23:41:00,
2013-02-06 18:46:00,31.0,27.9,30.22,West,270,2.8,4.6,88,0.00,CLR,SKC,0.01,WeatherDisplay:10.37,2013-02-06 23:46:00,
2013-02-06 18:51:00,32.0,28.8,30.22,West,270,2.4,5.8,88,0.00,CLR,SKC,0.01,WeatherDisplay:10.37,2013-02-06 23:51:00,
2013-02-06 18:56:00,31.0,28.1,30.22,WNW,292,0.8,3.5,89,0.00,CLR,SKC,0.01,WeatherDisplay:10.37,2013-02-06 23:56:00,
2013-02-06 19:01:00,32.0,28.8,30.22,WNW,292,4.2,7.0,88,0.00,CLR,SKC,0.01,WeatherDisplay:10.37,2013-02-07 00:01:00,
2013-02-06 19:06:00,32.0,28.6,30.22,WNW,292,4.1,11.5,87,0.00,CLR,SKC,0.01,WeatherDisplay:10.37,2013-02-07 00:06:00,
2013-02-06 19:11:00,32.0,28.3,30.23,NW,315,5.3,11.5,86,0.00,CLR,SKC,0.01,WeatherDisplay:10.37,2013-02-07 00:11:00,
2013-02-06 19:16:00,31.0,27.6,30.23,NNW,337,1.4,3.5,87,0.00,CLR,SKC,0.01,WeatherDisplay:10.37,2013-02-07 00:16:00,
2013-02-06 19:21:00,32.0,28.6,30.24,West,270,4.6,10.4,87,0.00,CLR,SKC,0.01,WeatherDisplay:10.37,2013-02-07 00:21:00,
2013-02-06 19:26:00,32.0,27.7,30.24,WNW,292,5.6,8.1,84,0.00,CLR,SKC,0.01,WeatherDisplay:10.37,2013-02-07 00:26:00,
2013-02-06 19:31:00,32.0,26.8,30.24,West,270,7.2,10.4,81,0.00,CLR,SKC,0.01,WeatherDisplay:10.37,2013-02-07 00:31:00,
2013-02-06 19:36:00,32.0,26.8,30.24,WNW,292,4.2,8.0,81,0.00,CLR,SKC,0.01,WeatherDisplay:10.37,2013-02-07 00:36:00,
2013-02-06 19:41:00,32.0,27.1,30.25,WNW,292,4.1,8.1,82,0.00,CLR,SKC,0.01,WeatherDisplay:10.37,2013-02-07 00:41:00,
2013-02-06 19:46:00,32.0,27.4,30.25,West,270,3.6,6.9,83,0.00,CLR,SKC,0.01,WeatherDisplay:10.37,2013-02-07 00:46:00,
2013-02-06 19:51:00,32.0,27.7,30.26,WNW,292,4.7,10.4,84,0.00,CLR,SKC,0.01,WeatherDisplay:10.37,2013-02-07 00:51:00,
2013-02-06 19:56:00,31.0,26.7,30.26,West,270,2.0,5.8,84,0.00,CLR,SKC,0.01,WeatherDisplay:10.37,2013-02-07 00:56:00,
2013-02-06 20:01:00,31.0,27.0,30.26,WNW,292,3.3,8.1,85,0.00,CLR,SKC,0.01,WeatherDisplay:10.37,2013-02-07 01:01:00,
2013-02-06 20:06:00,31.0,27.0,30.26,WNW,292,3.4,6.9,85,0.00,CLR,SKC,0.01,WeatherDisplay:10.37,2013-02-07 01:06:00,
2013-02-06 20:11:00,31.0,26.7,30.25,West,270,3.7,6.9,84,0.00,CLR,SKC,0.01,WeatherDisplay:10.37,2013-02-07 01:11:00,
2013-02-06 20:16:00,31.0,26.1,30.25,SW,225,5.0,13.8,82,0.00,CLR,SKC,0.01,WeatherDisplay:10.37,2013-02-07 01:16:00,
2013-02-06 20:21:00,31.0,25.9,30.26,WNW,292,1.5,6.0,81,0.00,CLR,SKC,0.01,WeatherDisplay:10.37,2013-02-07 01:21:00,
2013-02-06 20:26:00,31.0,26.1,30.26,WNW,292,4.0,8.1,82,0.00,CLR,SKC,0.01,WeatherDisplay:10.37,2013-02-07 01:26:00,
2013-02-06 20:31:00,31.0,25.9,30.26,NW,315,4.9,10.4,81,0.00,CLR,SKC,0.01,WeatherDisplay:10.37,2013-02-07 01:31:00,
2013-02-06 20:36:00,31.0,25.2,30.26,WNW,292,3.1,8.0,79,0.00,CLR,SKC,0.01,WeatherDisplay:10.37,2013-02-07 01:36:00,
2013-02-06 20:41:00,31.0,25.2,30.27,WNW,292,3.5,8.0,79,0.00,CLR,SKC,0.01,WeatherDisplay:10.37,2013-02-07 01:41:00,
2013-02-06 20:46:00,31.0,24.9,30.27,WNW,292,3.2,6.9,78,0.00,CLR,SKC,0.01,WeatherDisplay:10.37,2013-02-07 01:46:00,
2013-02-06 20:51:00,31.0,24.6,30.28,West,270,4.6,10.4,77,0.00,CLR,SKC,0.01,WeatherDisplay:10.37,2013-02-07 01:51:00,
2013-02-06 20:56:00,31.0,24.6,30.28,West,270,6.2,15.0,77,0.00,CLR,SKC,0.01,WeatherDisplay:10.37,2013-02-07 01:56:00,
2013-02-06 21:01:00,31.0,24.6,30.28,WNW,292,4.1,10.4,77,0.00,CLR,SKC,0.01,WeatherDisplay:10.37,2013-02-07 02:01:00,
2013-02-06 21:06:00,30.0,24.0,30.28,WNW,292,1.9,4.6,78,0.00,CLR,SKC,0.01,WeatherDisplay:10.37,2013-02-07 02:06:00,
2013-02-06 21:11:00,30.0,24.3,30.29,West,270,0.8,4.0,79,0.00,CLR,SKC,0.01,WeatherDisplay:10.37,2013-02-07 02:11:00,
2013-02-06 21:16:00,30.0,24.3,30.29,West,270,5.0,10.4,79,0.00,CLR,SKC,0.01,WeatherDisplay:10.37,2013-02-07 02:16:00,
2013-02-06 21:21:00,30.0,24.6,30.29,WNW,292,2.7,10.0,80,0.00,CLR,SKC,0.01,WeatherDisplay:10.37,2013-02-07 02:21:00,
2013-02-06 21:26:00,30.0,24.0,30.29,WNW,292,2.5,6.9,78,0.00,CLR,SKC,0.01,WeatherDisplay:10.37,2013-02-07 02:26:00,
2013-02-06 21:31:00,30.0,24.0,30.30,WNW,292,1.7,8.1,78,0.00,CLR,SKC,0.01,WeatherDisplay:10.37,2013-02-07 02:31:00,
2013-02-06 21:36:00,30.0,23.7,30.30,WNW,292,4.0,11.5,77,0.00,CLR,SKC,0.01,WeatherDisplay:10.37,2013-02-07 02:36:00,
2013-02-06 21:41:00,30.0,24.0,30.30,WNW,292,3.0,6.0,78,0.00,CLR,SKC,0.01,WeatherDisplay:10.37,2013-02-07 02:41:00,
2013-02-06 21:46:00,29.0,22.1,30.30,WNW,292,1.1,7.0,75,0.00,CLR,SKC,0.01,WeatherDisplay:10.37,2013-02-07 02:46:00,
2013-02-06 21:51:00,30.0,22.4,30.31,WNW,292,2.7,8.1,73,0.00,CLR,SKC,0.01,WeatherDisplay:10.37,2013-02-07 02:51:00,
2013-02-06 21:56:00,30.0,22.4,30.31,NNW,337,4.1,10.4,73,0.00,CLR,SKC,0.01,WeatherDisplay:10.37,2013-02-07 02:56:00,
2013-02-06 22:01:00,29.0,21.4,30.32,North,360,4.1,9.2,73,0.00,CLR,SKC,0.01,WeatherDisplay:10.37,2013-02-07 03:01:00,
2013-02-06 22:06:00,30.0,21.7,30.32,WNW,292,3.5,8.1,71,0.00,CLR,SKC,0.01,WeatherDisplay:10.37,2013-02-07 03:06:00,
2013-02-06 22:11:00,29.0,20.4,30.32,WSW,247,4.5,8.1,70,0.00,CLR,SKC,0.01,WeatherDisplay:10.37,2013-02-07 03:11:00,
2013-02-06 22:16:00,29.0,21.1,30.32,West,270,3.7,8.1,72,0.00,CLR,SKC,0.01,WeatherDisplay:10.37,2013-02-07 03:16:00,
2013-02-06 22:21:00,29.0,21.4,30.33,NW,315,3.2,8.1,73,0.00,CLR,SKC,0.01,WeatherDisplay:10.37,2013-02-07 03:21:00,
2013-02-06 22:26:00,29.0,21.1,30.33,WNW,292,2.2,7.0,72,0.00,CLR,SKC,0.01,WeatherDisplay:10.37,2013-02-07 03:26:00,
2013-02-06 22:31:00,29.0,21.1,30.33,WNW,292,1.2,4.6,72,0.00,CLR,SKC,0.01,WeatherDisplay:10.37,2013-02-07 03:31:00,
2013-02-06 22:36:00,29.0,21.1,30.33,NW,315,4.8,10.4,72,0.00,CLR,SKC,0.01,WeatherDisplay:10.37,2013-02-07 03:36:00,
2013-02-06 22:41:00,29.0,20.4,30.33,NW,315,3.9,13.8,70,0.00,CLR,SKC,0.01,WeatherDisplay:10.37,2013-02-07 03:41:00,
2013-02-06 22:46:00,29.0,20.1,30.33,WSW,247,2.0,6.9,69,0.00,CLR,SKC,0.01,WeatherDisplay:10.37,2013-02-07 03:46:00,
2013-02-06 22:51:00,28.0,20.1,30.33,WNW,292,1.9,6.9,72,0.00,CLR,SKC,0.01,WeatherDisplay:10.37,2013-02-07 03:51:00,
2013-02-06 22:56:00,29.0,22.1,30.33,NNW,337,3.7,8.1,75,0.00,CLR,SKC,0.01,WeatherDisplay:10.37,2013-02-07 03:56:00,
2013-02-06 23:01:00,29.0,21.4,30.34,NNW,337,6.8,12.7,73,0.00,CLR,SKC,0.01,WeatherDisplay:10.37,2013-02-07 04:01:00,
2013-02-06 23:06:00,29.0,21.4,30.34,NW,315,5.4,9.2,73,0.00,CLR,SKC,0.01,WeatherDisplay:10.37,2013-02-07 04:06:00,
2013-02-06 23:11:00,29.0,21.1,30.33,WSW,247,6.1,11.5,72,0.00,CLR,SKC,0.01,WeatherDisplay:10.37,2013-02-07 04:11:00,
2013-02-06 23:16:00,29.0,21.1,30.33,WNW,292,4.9,6.9,72,0.00,CLR,SKC,0.01,WeatherDisplay:10.37,2013-02-07 04:16:00,
2013-02-06 23:21:00,28.0,19.5,30.35,WNW,292,1.1,5.8,70,0.00,CLR,SKC,0.01,WeatherDisplay:10.37,2013-02-07 04:21:00,
2013-02-06 23:26:00,28.0,19.1,30.35,WNW,292,2.5,5.8,69,0.00,CLR,SKC,0.01,WeatherDisplay:10.37,2013-02-07 04:26:00,
2013-02-06 23:31:00,28.0,19.5,30.35,WNW,292,1.9,4.6,70,0.00,CLR,SKC,0.01,WeatherDisplay:10.37,2013-02-07 04:31:00,
2013-02-06 23:36:00,28.0,19.8,30.35,NNW,337,3.7,6.9,71,0.00,CLR,SKC,0.01,WeatherDisplay:10.37,2013-02-07 04:36:00,
2013-02-06 23:41:00,28.0,18.8,30.35,SW,225,0.4,2.3,68,0.00,CLR,SKC,0.01,WeatherDisplay:10.37,2013-02-07 04:41:00,
2013-02-06 23:46:00,28.0,18.8,30.35,WNW,292,3.3,6.9,68,0.00,CLR,SKC,0.01,WeatherDisplay:10.37,2013-02-07 04:46:00,
2013-02-06 23:51:00,28.0,18.8,30.36,NW,315,2.2,6.9,68,0.00,CLR,SKC,0.01,WeatherDisplay:10.37,2013-02-07 04:51:00,
2013-02-06 23:56:00,27.0,18.5,30.36,WSW,247,0.5,3.5,70,0.00,CLR,SKC,0.01,WeatherDisplay:10.37,2013-02-07 04:56:00,